createdAt,value
2018-05-06T00:01:28.608Z,13.00
2018-05-06T00:03:58.355Z,12.90
2018-05-06T00:06:28.143Z,13.00
2018-05-06T00:08:58.083Z,12.90
2018-05-06T00:11:28.680Z,12.90
2018-05-06T00:13:58.520Z,12.90
2018-05-06T00:16:28.280Z,12.90
2018-05-06T00:18:58.805Z,12.90
2018-05-06T00:21:28.852Z,12.90
2018-05-06T00:23:58.659Z,12.90
2018-05-06T00:26:28.396Z,12.90
2018-05-06T00:28:58.159Z,12.80
2018-05-06T00:31:27.997Z,12.80
2018-05-06T00:33:57.471Z,12.80
2018-05-06T00:36:27.278Z,12.80
2018-05-06T00:38:56.785Z,12.70
2018-05-06T00:41:26.286Z,12.70
2018-05-06T00:43:56.097Z,12.70
2018-05-06T00:46:25.911Z,12.70
2018-05-06T00:48:55.830Z,12.70
2018-05-06T00:51:25.612Z,12.60
2018-05-06T00:53:55.390Z,12.50
2018-05-06T00:56:25.135Z,12.50
2018-05-06T00:58:55.730Z,12.40
2018-05-06T01:01:25.516Z,12.40
2018-05-06T01:03:55.426Z,12.40
2018-05-06T01:06:24.994Z,12.40
2018-05-06T01:08:54.743Z,12.40
2018-05-06T01:11:24.551Z,12.40
2018-05-06T01:13:55.082Z,12.40
2018-05-06T01:16:24.606Z,12.40
2018-05-06T01:18:54.396Z,12.40
2018-05-06T01:21:24.903Z,12.40
2018-05-06T01:23:55.430Z,12.40
2018-05-06T01:26:25.986Z,12.40
2018-05-06T01:28:55.765Z,12.40
2018-05-06T01:31:25.284Z,12.40
2018-05-06T01:33:55.868Z,12.40
2018-05-06T01:36:25.628Z,12.40
2018-05-06T01:38:56.173Z,12.40
2018-05-06T01:41:25.931Z,12.40
2018-05-06T01:43:55.955Z,12.30
2018-05-06T01:46:25.693Z,12.30
2018-05-06T01:48:56.220Z,12.20
2018-05-06T01:51:25.956Z,12.20
2018-05-06T01:53:55.741Z,12.20
2018-05-06T01:56:25.488Z,12.20
2018-05-06T01:58:55.263Z,12.20
2018-05-06T02:01:25.034Z,12.20
2018-05-06T02:03:54.508Z,12.20
2018-05-06T02:06:25.036Z,12.20
2018-05-06T02:08:55.540Z,12.10
2018-05-06T02:11:25.336Z,12.10
2018-05-06T02:13:55.120Z,12.00
2018-05-06T02:16:24.860Z,12.00
2018-05-06T02:18:54.317Z,12.00
2018-05-06T02:21:24.044Z,11.90
2018-05-06T02:23:53.787Z,12.00
2018-05-06T02:26:23.590Z,11.90
2018-05-06T02:28:53.378Z,11.90
2018-05-06T02:31:22.808Z,11.90
2018-05-06T02:33:52.609Z,11.80
2018-05-06T02:36:22.336Z,11.80
2018-05-06T02:38:52.140Z,11.90
2018-05-06T02:41:21.905Z,11.80
2018-05-06T02:43:52.471Z,11.80
2018-05-06T02:46:22.274Z,11.80
2018-05-06T02:48:52.021Z,11.80
2018-05-06T02:51:22.278Z,11.80
2018-05-06T02:53:52.497Z,11.80
2018-05-06T02:56:23.053Z,11.70
2018-05-06T02:58:52.820Z,11.70
2018-05-06T03:01:22.600Z,11.70
2018-05-06T03:03:52.359Z,11.60
2018-05-06T03:06:22.864Z,11.60
2018-05-06T03:08:52.611Z,11.60
2018-05-06T03:11:22.116Z,11.60
2018-05-06T03:13:52.650Z,11.50
2018-05-06T03:16:22.974Z,11.50
2018-05-06T03:18:53.489Z,11.50
2018-05-06T03:21:24.049Z,11.50
2018-05-06T03:23:53.793Z,11.40
2018-05-06T03:26:23.572Z,11.40
2018-05-06T03:28:53.344Z,11.40
2018-05-06T03:31:23.114Z,11.30
2018-05-06T03:33:53.007Z,11.30
2018-05-06T03:36:22.751Z,11.20
2018-05-06T03:39:12.445Z,11.20
2018-05-06T03:41:42.205Z,11.20
2018-05-06T03:44:11.981Z,11.20
2018-05-06T03:46:41.745Z,11.10
2018-05-06T03:49:11.509Z,11.10
2018-05-06T03:51:42.054Z,11.00
2018-05-06T03:54:12.602Z,11.00
2018-05-06T03:57:02.331Z,11.00
2018-05-06T03:59:44.000Z,11.00
2018-05-06T04:02:43.026Z,11.00
2018-05-06T04:05:12.848Z,11.00
2018-05-06T04:07:42.614Z,11.10
2018-05-06T04:10:14.067Z,11.10
2018-05-06T04:12:43.844Z,11.20
2018-05-06T04:15:14.389Z,11.20
2018-05-06T04:17:44.922Z,11.20
2018-05-06T04:20:14.705Z,11.20
2018-05-06T04:22:44.480Z,11.20
2018-05-06T04:25:14.238Z,11.20
2018-05-06T04:27:44.777Z,11.20
2018-05-06T04:30:15.104Z,11.30
2018-05-06T04:32:45.399Z,11.40
2018-05-06T04:35:14.854Z,11.30
2018-05-06T04:37:44.604Z,11.30
2018-05-06T04:40:14.415Z,11.30
2018-05-06T04:42:44.181Z,11.40
2018-05-06T04:45:13.938Z,11.40
2018-05-06T04:47:43.686Z,11.50
2018-05-06T04:50:14.233Z,11.50
2018-05-06T04:52:43.995Z,11.50
2018-05-06T04:55:13.755Z,11.60
2018-05-06T04:57:43.522Z,11.60
2018-05-06T05:00:13.304Z,11.70
2018-05-06T05:02:43.104Z,11.70
2018-05-06T05:05:12.888Z,11.70
2018-05-06T05:07:43.440Z,11.80
2018-05-06T05:10:13.230Z,11.80
2018-05-06T05:12:43.758Z,11.90
2018-05-06T05:15:14.325Z,11.90
2018-05-06T05:17:44.049Z,11.90
2018-05-06T05:20:13.605Z,12.10
2018-05-06T05:22:44.131Z,12.40
2018-05-06T05:25:14.684Z,12.80
2018-05-06T05:27:44.121Z,12.70
2018-05-06T05:30:13.880Z,13.10
2018-05-06T05:32:44.387Z,13.60
2018-05-06T05:35:14.225Z,13.60
2018-05-06T05:37:44.052Z,13.70
2018-05-06T05:40:13.968Z,13.70
2018-05-06T05:42:43.758Z,13.90
2018-05-06T05:45:14.291Z,14.40
2018-05-06T05:47:44.120Z,14.40
2018-05-06T05:50:14.003Z,14.60
2018-05-06T05:52:43.795Z,14.90
2018-05-06T05:55:13.267Z,15.00
2018-05-06T05:57:43.046Z,15.10
2018-05-06T06:00:13.559Z,15.50
2018-05-06T06:02:43.327Z,15.50
2018-05-06T06:05:13.132Z,15.70
2018-05-06T06:07:42.298Z,16.20
2018-05-06T06:10:12.048Z,16.10
2018-05-06T06:12:41.799Z,16.20
2018-05-06T06:15:11.580Z,16.30
2018-05-06T06:17:41.341Z,16.40
2018-05-06T06:20:11.983Z,16.60
2018-05-06T06:22:41.909Z,16.60
2018-05-06T06:25:11.420Z,17.00
2018-05-06T06:27:40.968Z,17.10
2018-05-06T06:30:10.746Z,17.00
2018-05-06T06:32:40.556Z,17.40
2018-05-06T06:35:10.027Z,17.70
2018-05-06T06:37:39.498Z,18.10
2018-05-06T06:40:09.775Z,18.20
2018-05-06T06:42:39.243Z,18.20
2018-05-06T06:45:08.455Z,18.40
2018-05-06T06:47:37.927Z,18.40
2018-05-06T06:50:08.209Z,18.40
2018-05-06T06:52:37.711Z,18.40
2018-05-06T06:55:07.305Z,18.60
2018-05-06T06:57:36.766Z,18.70
2018-05-06T07:00:07.081Z,19.10
2018-05-06T07:02:37.095Z,19.50
2018-05-06T07:05:06.636Z,19.40
2018-05-06T07:07:36.176Z,19.30
2018-05-06T07:10:05.666Z,19.50
2018-05-06T07:12:34.920Z,19.60
2018-05-06T07:15:04.469Z,19.70
2018-05-06T07:17:33.954Z,20.00
2018-05-06T07:20:03.464Z,20.20
2018-05-06T07:22:32.956Z,20.50
2018-05-06T07:25:03.206Z,20.80
2018-05-06T07:27:32.711Z,20.70
2018-05-06T07:30:02.232Z,21.00
2018-05-06T07:32:32.722Z,21.00
2018-05-06T07:35:02.250Z,21.00
2018-05-06T07:37:31.756Z,21.40
2018-05-06T07:40:01.283Z,21.30
2018-05-06T07:42:30.848Z,20.90
2018-05-06T07:45:00.369Z,21.00
2018-05-06T07:47:29.879Z,21.20
2018-05-06T07:49:59.501Z,21.30
2018-05-06T07:52:28.992Z,20.90
2018-05-06T07:55:00.080Z,21.70
2018-05-06T07:57:29.990Z,21.70
2018-05-06T07:59:59.636Z,22.10
2018-05-06T08:02:30.101Z,22.30
2018-05-06T08:04:59.591Z,22.30
2018-05-06T08:07:30.599Z,22.80
2018-05-06T08:10:02.727Z,22.90
2018-05-06T08:12:32.383Z,22.60
2018-05-06T08:15:01.877Z,22.60
2018-05-06T08:17:31.464Z,22.50
2018-05-06T08:20:00.965Z,22.20
2018-05-06T08:22:30.480Z,22.30
2018-05-06T08:25:00.615Z,22.50
2018-05-06T08:27:30.921Z,22.90
2018-05-06T08:30:00.388Z,22.90
2018-05-06T08:32:30.723Z,22.90
2018-05-06T08:35:00.220Z,22.90
2018-05-06T08:37:29.766Z,23.10
2018-05-06T08:39:59.423Z,23.20
2018-05-06T08:42:28.951Z,23.40
2018-05-06T08:44:58.453Z,23.60
2018-05-06T08:47:28.012Z,24.00
2018-05-06T08:49:57.551Z,23.90
2018-05-06T08:52:27.068Z,23.70
2018-05-06T08:54:56.582Z,24.30
2018-05-06T08:57:26.255Z,24.70
2018-05-06T08:59:56.515Z,24.60
2018-05-06T09:02:25.980Z,24.50
2018-05-06T09:04:56.244Z,23.70
2018-05-06T09:07:25.789Z,23.60
2018-05-06T09:09:55.293Z,23.20
2018-05-06T09:12:24.776Z,23.60
2018-05-06T09:14:54.264Z,24.30
2018-05-06T09:17:23.436Z,24.30
2018-05-06T09:19:53.697Z,24.50
2018-05-06T09:22:23.202Z,24.50
2018-05-06T09:24:52.736Z,25.10
2018-05-06T09:27:22.267Z,25.50
2018-05-06T09:29:51.764Z,25.70
2018-05-06T09:32:20.928Z,25.70
2018-05-06T09:34:50.590Z,26.20
2018-05-06T09:37:20.913Z,26.80
2018-05-06T09:39:51.182Z,26.90
2018-05-06T09:42:20.674Z,26.90
2018-05-06T09:44:50.204Z,26.60
2018-05-06T09:47:19.720Z,26.50
2018-05-06T09:49:49.253Z,26.50
2018-05-06T09:52:18.753Z,25.80
2018-05-06T09:54:48.259Z,25.40
2018-05-06T09:57:18.045Z,25.50
2018-05-06T09:59:47.569Z,25.90
2018-05-06T10:02:17.093Z,26.60
2018-05-06T10:04:46.582Z,26.90
2018-05-06T10:07:20.397Z,25.60
2018-05-06T10:09:51.323Z,25.60
2018-05-06T10:12:21.719Z,25.40
2018-05-06T10:14:51.239Z,25.40
2018-05-06T10:17:20.792Z,25.80
2018-05-06T10:19:51.084Z,26.50
2018-05-06T10:22:20.694Z,26.60
2018-05-06T10:24:52.185Z,26.70
2018-05-06T10:27:25.265Z,27.00
2018-05-06T10:29:57.464Z,27.10
2018-05-06T10:32:30.102Z,26.70
2018-05-06T10:35:00.512Z,26.80
2018-05-06T10:37:33.245Z,27.40
2018-05-06T10:40:04.056Z,27.50
2018-05-06T10:42:34.497Z,28.00
2018-05-06T10:45:04.959Z,28.00
2018-05-06T10:47:38.809Z,29.10
2018-05-06T10:50:08.789Z,29.10
2018-05-06T10:52:39.535Z,29.00
2018-05-06T10:55:09.787Z,28.50
2018-05-06T10:57:39.321Z,28.40
2018-05-06T11:00:08.876Z,28.40
2018-05-06T11:02:39.124Z,27.60
2018-05-06T11:05:08.622Z,27.60
2018-05-06T11:07:38.093Z,28.00
2018-05-06T11:10:07.668Z,28.80
2018-05-06T11:12:38.111Z,29.20
2018-05-06T11:15:07.639Z,29.10
2018-05-06T11:17:37.149Z,29.00
2018-05-06T11:20:06.623Z,29.80
2018-05-06T11:22:36.093Z,29.80
2018-05-06T11:25:05.236Z,30.20
2018-05-06T11:27:34.718Z,30.10
2018-05-06T11:30:03.635Z,30.00
2018-05-06T11:32:33.179Z,28.90
2018-05-06T11:35:03.216Z,28.80
2018-05-06T11:37:32.729Z,28.80
2018-05-06T11:40:02.238Z,29.00
2018-05-06T11:42:31.763Z,29.30
2018-05-06T11:45:01.340Z,30.00
2018-05-06T11:47:30.831Z,30.10
2018-05-06T11:50:00.349Z,31.10
2018-05-06T11:52:29.809Z,31.80
2018-05-06T11:54:59.338Z,31.70
2018-05-06T11:57:29.607Z,32.00
2018-05-06T11:59:59.079Z,32.00
2018-05-06T12:02:28.554Z,31.80
2018-05-06T12:04:58.816Z,32.30
2018-05-06T12:07:28.333Z,32.30
2018-05-06T12:09:57.899Z,32.70
2018-05-06T12:12:27.500Z,32.80
2018-05-06T12:14:57.823Z,33.60
2018-05-06T12:17:27.308Z,33.60
2018-05-06T12:19:56.815Z,33.30
2018-05-06T12:22:26.339Z,33.30
2018-05-06T12:24:55.799Z,33.00
2018-05-06T12:27:26.101Z,31.70
2018-05-06T12:29:56.231Z,31.70
2018-05-06T12:32:26.550Z,31.80
2018-05-06T12:34:56.034Z,31.80
2018-05-06T12:37:25.505Z,32.90
2018-05-06T12:39:55.023Z,32.90
2018-05-06T12:42:24.317Z,33.50
2018-05-06T12:44:53.816Z,34.50
2018-05-06T12:47:23.087Z,34.80
2018-05-06T12:49:53.342Z,34.30
2018-05-06T12:52:22.815Z,34.30
2018-05-06T12:54:52.001Z,33.70
2018-05-06T12:57:21.463Z,34.60
2018-05-06T12:59:51.020Z,34.40
2018-05-06T13:02:20.608Z,34.50
2018-05-06T13:04:51.001Z,34.50
2018-05-06T13:07:20.517Z,34.50
2018-05-06T13:09:50.024Z,34.80
2018-05-06T13:12:19.516Z,35.30
2018-05-06T13:14:49.020Z,35.50
2018-05-06T13:17:19.271Z,34.30
2018-05-06T13:19:48.754Z,34.30
2018-05-06T13:22:19.058Z,33.50
2018-05-06T13:24:48.583Z,33.50
2018-05-06T13:27:17.865Z,32.60
2018-05-06T13:29:48.111Z,32.50
2018-05-06T13:32:17.387Z,32.50
2018-05-06T13:34:46.660Z,32.40
2018-05-06T13:37:16.172Z,33.00
2018-05-06T13:39:45.643Z,32.70
2018-05-06T13:42:15.180Z,32.80
2018-05-06T13:44:44.659Z,33.20
2018-05-06T13:47:14.185Z,32.60
2018-05-06T13:49:43.734Z,31.80
2018-05-06T13:52:13.391Z,32.70
2018-05-06T13:54:42.897Z,32.30
2018-05-06T13:57:12.163Z,32.40
2018-05-06T13:59:41.668Z,31.90
2018-05-06T14:02:11.160Z,32.30
2018-05-06T14:04:40.681Z,33.20
2018-05-06T14:07:10.183Z,33.30
2018-05-06T14:09:40.273Z,32.70
2018-05-06T14:12:09.809Z,32.70
2018-05-06T14:14:39.328Z,32.20
2018-05-06T14:17:08.832Z,31.40
2018-05-06T14:19:38.350Z,30.80
2018-05-06T14:22:07.866Z,30.10
2018-05-06T14:24:38.121Z,29.50
2018-05-06T14:27:07.631Z,29.40
2018-05-06T14:29:36.827Z,28.90
2018-05-06T14:32:06.406Z,28.10
2018-05-06T14:34:35.861Z,27.50
2018-05-06T14:37:05.367Z,27.00
2018-05-06T14:39:34.915Z,26.80
2018-05-06T14:42:05.222Z,26.10
2018-05-06T14:44:35.526Z,25.70
2018-05-06T14:47:16.125Z,25.60
2018-05-06T14:49:45.376Z,25.50
2018-05-06T14:52:14.840Z,25.10
2018-05-06T14:54:44.408Z,24.80
2018-05-06T14:57:13.909Z,24.80
2018-05-06T14:59:44.996Z,24.70
2018-05-06T15:02:14.483Z,24.70
2018-05-06T15:04:44.769Z,24.50
2018-05-06T15:07:14.268Z,24.40
2018-05-06T15:09:43.771Z,24.20
2018-05-06T15:12:14.189Z,24.00
2018-05-06T15:14:43.688Z,24.10
2018-05-06T15:17:13.151Z,24.00
2018-05-06T15:19:42.707Z,24.00
2018-05-06T15:22:12.237Z,24.00
2018-05-06T15:24:41.731Z,24.10
2018-05-06T15:27:11.259Z,24.00
2018-05-06T15:29:40.787Z,23.90
2018-05-06T15:32:11.096Z,23.70
2018-05-06T15:34:40.775Z,23.70
2018-05-06T15:37:10.303Z,23.50
2018-05-06T15:39:39.843Z,23.60
2018-05-06T15:42:10.088Z,23.70
2018-05-06T15:44:39.251Z,23.60
2018-05-06T15:47:09.768Z,23.70
2018-05-06T15:49:39.326Z,23.60
2018-05-06T15:52:08.826Z,23.50
2018-05-06T15:54:38.380Z,23.30
2018-05-06T15:57:07.539Z,23.30
2018-05-06T15:59:37.076Z,23.20
2018-05-06T16:02:17.868Z,23.10
2018-05-06T16:04:47.126Z,22.90
2018-05-06T16:07:16.624Z,23.00
2018-05-06T16:09:46.171Z,23.00
2018-05-06T16:12:15.679Z,23.00
2018-05-06T16:14:45.208Z,22.80
2018-05-06T16:17:14.730Z,22.80
2018-05-06T16:19:44.219Z,22.80
2018-05-06T16:22:14.158Z,22.70
2018-05-06T16:24:43.668Z,22.60
2018-05-06T16:27:13.160Z,22.70
2018-05-06T16:29:42.777Z,22.60
2018-05-06T16:32:12.397Z,22.70
2018-05-06T16:34:41.882Z,22.60
2018-05-06T16:37:12.111Z,22.40
2018-05-06T16:39:41.402Z,22.40
2018-05-06T16:42:11.631Z,22.40
2018-05-06T16:44:41.130Z,22.40
2018-05-06T16:47:10.647Z,22.40
2018-05-06T16:49:40.225Z,22.20
2018-05-06T16:52:09.964Z,22.30
2018-05-06T16:54:39.833Z,22.10
2018-05-06T16:57:09.409Z,22.10
2018-05-06T16:59:38.919Z,22.00
2018-05-06T17:02:08.393Z,22.00
2018-05-06T17:04:37.959Z,21.90
2018-05-06T17:07:07.508Z,21.90
2018-05-06T17:09:37.039Z,21.90
2018-05-06T17:12:06.551Z,21.90
2018-05-06T17:14:36.930Z,21.90
2018-05-06T17:17:06.140Z,21.80
2018-05-06T17:19:35.628Z,21.80
2018-05-06T17:22:04.899Z,21.90
2018-05-06T17:24:34.534Z,21.70
2018-05-06T17:27:04.002Z,21.70
2018-05-06T17:29:34.260Z,21.60
2018-05-06T17:32:03.531Z,21.60
2018-05-06T17:34:33.835Z,21.50
2018-05-06T17:37:03.356Z,21.40
2018-05-06T17:39:32.895Z,21.40
2018-05-06T17:42:02.367Z,21.40
2018-05-06T17:44:31.210Z,21.30
2018-05-06T17:47:01.004Z,21.30
2018-05-06T17:49:30.134Z,21.30
2018-05-06T17:52:00.303Z,21.30
2018-05-06T17:54:29.453Z,21.20
2018-05-06T17:56:58.994Z,21.20
2018-05-06T17:59:29.298Z,21.10
2018-05-06T18:01:59.596Z,21.10
2018-05-06T18:04:29.120Z,21.00
2018-05-06T18:06:58.311Z,21.00
2018-05-06T18:09:27.798Z,21.00
2018-05-06T18:11:57.349Z,21.00
2018-05-06T18:14:27.618Z,20.80
2018-05-06T18:16:56.833Z,20.80
2018-05-06T18:19:26.355Z,20.70
2018-05-06T18:21:56.658Z,20.60
2018-05-06T18:24:26.214Z,20.60
2018-05-06T18:26:55.715Z,20.50
2018-05-06T18:29:25.970Z,20.40
2018-05-06T18:31:55.505Z,20.30
2018-05-06T18:34:24.705Z,20.30
2018-05-06T18:36:54.183Z,20.20
2018-05-06T18:39:24.383Z,20.10
2018-05-06T18:41:54.666Z,20.00
2018-05-06T18:44:24.168Z,19.90
2018-05-06T18:46:53.698Z,19.90
2018-05-06T18:49:23.203Z,19.80
2018-05-06T18:51:53.517Z,19.70
2018-05-06T18:54:23.021Z,19.70
2018-05-06T18:56:52.656Z,19.60
2018-05-06T18:59:21.912Z,19.60
2018-05-06T19:01:51.560Z,19.50
2018-05-06T19:04:21.806Z,19.40
2018-05-06T19:06:50.793Z,19.30
2018-05-06T19:09:21.059Z,19.10
2018-05-06T19:11:50.584Z,19.10
2018-05-06T19:14:20.097Z,19.10
2018-05-06T19:16:49.281Z,19.00
2018-05-06T19:19:18.447Z,19.00
2018-05-06T19:21:47.964Z,19.00
2018-05-06T19:24:17.459Z,19.00
2018-05-06T19:26:46.711Z,18.90
2018-05-06T19:29:16.436Z,18.80
2018-05-06T19:31:46.723Z,18.60
2018-05-06T19:34:16.249Z,18.60
2018-05-06T19:36:46.224Z,18.60
2018-05-06T19:39:15.735Z,18.50
2018-05-06T19:41:45.264Z,18.50
2018-05-06T19:44:14.757Z,18.50
2018-05-06T19:46:44.231Z,18.50
2018-05-06T19:49:13.771Z,18.40
2018-05-06T19:51:43.277Z,18.40
2018-05-06T19:54:12.488Z,18.30
2018-05-06T19:56:42.520Z,18.20
2018-05-06T19:59:12.002Z,18.20
2018-05-06T20:01:41.472Z,18.20
2018-05-06T20:04:11.032Z,18.10
2018-05-06T20:06:40.573Z,18.10
2018-05-06T20:09:10.073Z,18.00
2018-05-06T20:11:39.296Z,18.00
2018-05-06T20:14:08.843Z,17.90
2018-05-06T20:16:38.278Z,17.80
2018-05-06T20:19:07.779Z,17.80
2018-05-06T20:21:38.134Z,17.60
2018-05-06T20:24:07.789Z,17.60
2018-05-06T20:26:37.850Z,17.50
2018-05-06T20:29:07.527Z,17.50
2018-05-06T20:31:37.047Z,17.50
2018-05-06T20:34:06.277Z,17.50
2018-05-06T20:36:35.776Z,17.40
2018-05-06T20:39:04.614Z,17.30
2018-05-06T20:41:34.617Z,17.20
2018-05-06T20:44:04.413Z,17.10
2018-05-06T20:46:34.377Z,17.10
2018-05-06T20:49:04.643Z,16.90
2018-05-06T20:51:34.107Z,16.90
2018-05-06T20:54:03.546Z,16.90
2018-05-06T20:56:33.272Z,16.80
2018-05-06T20:59:02.684Z,16.80
2018-05-06T21:01:32.127Z,16.80
2018-05-06T21:04:01.904Z,16.80
2018-05-06T21:06:31.506Z,16.70
2018-05-06T21:09:01.982Z,16.70
2018-05-06T21:11:32.221Z,16.70
2018-05-06T21:14:01.991Z,16.70
2018-05-06T21:16:31.452Z,16.60
2018-05-06T21:19:00.917Z,16.50
2018-05-06T21:21:30.357Z,16.50
2018-05-06T21:24:00.910Z,16.30
2018-05-06T21:26:31.441Z,16.30
2018-05-06T21:29:01.178Z,16.30
2018-05-06T21:31:30.949Z,16.20
2018-05-06T21:34:00.880Z,16.20
2018-05-06T21:36:31.388Z,16.00
2018-05-06T21:39:01.762Z,15.90
2018-05-06T21:41:32.076Z,15.90
2018-05-06T21:44:01.825Z,15.80
2018-05-06T21:46:32.366Z,15.70
2018-05-06T21:49:02.091Z,15.70
2018-05-06T21:51:32.621Z,15.70
2018-05-06T21:54:01.746Z,15.60
2018-05-06T21:56:31.240Z,15.60
2018-05-06T21:59:01.771Z,15.80
2018-05-06T22:01:32.282Z,15.80
2018-05-06T22:04:02.014Z,15.80
2018-05-06T22:06:31.238Z,15.80
2018-05-06T22:09:00.841Z,15.80
2018-05-06T22:11:30.341Z,15.80
2018-05-06T22:14:00.601Z,15.70
2018-05-06T22:16:32.014Z,15.70
2018-05-06T22:19:01.502Z,15.70
2018-05-06T22:21:31.772Z,15.50
2018-05-06T22:24:01.622Z,15.50
2018-05-06T22:26:31.342Z,15.50
2018-05-06T22:29:00.888Z,15.30
2018-05-06T22:31:31.124Z,15.20
2018-05-06T22:34:00.872Z,15.20
2018-05-06T22:36:31.122Z,15.10
2018-05-06T22:39:01.555Z,15.10
2018-05-06T22:41:31.179Z,15.00
2018-05-06T22:44:00.810Z,15.00
2018-05-06T22:46:30.906Z,14.90
2018-05-06T22:49:00.405Z,14.90
2018-05-06T22:51:29.854Z,14.80
2018-05-06T22:54:00.107Z,14.80
2018-05-06T22:56:29.571Z,14.80
2018-05-06T22:58:59.353Z,14.80
2018-05-06T23:01:28.779Z,14.80
2018-05-06T23:03:58.723Z,14.70
2018-05-06T23:06:28.486Z,14.70
2018-05-06T23:08:58.230Z,14.70
2018-05-06T23:11:27.969Z,14.70
2018-05-06T23:13:57.919Z,14.70
2018-05-06T23:16:27.677Z,14.70
2018-05-06T23:18:57.387Z,14.60
2018-05-06T23:21:27.188Z,14.60
2018-05-06T23:23:56.936Z,14.60
2018-05-06T23:26:27.518Z,14.60
2018-05-06T23:28:57.416Z,14.60
2018-05-06T23:31:26.896Z,14.60
2018-05-06T23:33:56.639Z,14.60
2018-05-06T23:36:26.371Z,14.50
2018-05-06T23:38:56.117Z,14.50
2018-05-06T23:41:25.998Z,14.40
2018-05-06T23:43:55.713Z,14.40
2018-05-06T23:46:26.930Z,14.20
2018-05-06T23:48:56.687Z,14.20
2018-05-06T23:51:26.392Z,14.20
2018-05-06T23:53:56.125Z,14.20
2018-05-06T23:56:26.656Z,14.10
2018-05-06T23:58:56.018Z,14.10
